Terminal Aerodrome Forecast
Issued by NWS

Home | Current Version | Previous Version | Text Only | Print | Product List | Glossary On
Versions: 1 2 3 4 5 6 7 8 9 10 11 12 13
869
FTUS45 KTFX 181120
TAFBZN
TAF
KBZN 181120Z 1812/1918 16006KT 6SM FU SCT080
     FM182000 30011KT P6SM SKC
     FM190300 16006KT 6SM FU SCT080=

USA.gov is the U.S. government's official web portal to all federal, state and local government web resources and services.